createdAt,value
2023-05-10T00:00:43.245Z,66.94
2023-05-10T00:03:46.292Z,67.03
2023-05-10T00:06:48.997Z,67.64
2023-05-10T00:09:51.856Z,67.72
2023-05-10T00:12:54.395Z,68.49
2023-05-10T00:15:57.284Z,68.43
2023-05-10T00:18:59.821Z,69.81
2023-05-10T00:22:02.643Z,69.07
2023-05-10T00:25:05.701Z,68.90
2023-05-10T00:28:08.666Z,69.02
2023-05-10T00:31:13.917Z,69.46
2023-05-10T00:34:16.803Z,69.79
2023-05-10T00:37:19.314Z,69.72
2023-05-10T00:40:22.579Z,70.80
2023-05-10T00:43:25.481Z,70.90
2023-05-10T00:46:29.135Z,71.30
2023-05-10T00:49:32.256Z,71.42
2023-05-10T00:52:35.249Z,71.67
2023-05-10T00:55:38.322Z,72.10
2023-05-10T00:58:41.224Z,71.93
2023-05-10T01:01:47.555Z,72.04
2023-05-10T01:04:50.744Z,72.09
2023-05-10T01:07:53.698Z,72.15
2023-05-10T01:10:56.576Z,72.55
2023-05-10T01:13:59.310Z,73.01
2023-05-10T01:17:03.105Z,72.77
2023-05-10T01:20:07.674Z,72.91
2023-05-10T01:23:30.619Z,72.86
2023-05-10T01:26:42.140Z,72.93
2023-05-10T01:30:14.153Z,73.09
2023-05-10T01:33:24.512Z,73.50
2023-05-10T01:36:37.904Z,73.55
2023-05-10T01:39:58.575Z,73.80
2023-05-10T01:43:04.041Z,73.74
2023-05-10T01:46:11.915Z,73.74
2023-05-10T01:49:24.534Z,73.16
2023-05-10T01:52:29.604Z,73.19
2023-05-10T01:55:34.700Z,72.79
2023-05-10T01:58:37.747Z,72.55
2023-05-10T02:01:41.230Z,72.53
2023-05-10T02:04:45.442Z,72.51
2023-05-10T02:07:48.447Z,72.59
2023-05-10T02:10:53.604Z,72.62
2023-05-10T02:13:56.388Z,72.73
2023-05-10T02:17:01.556Z,72.55
2023-05-10T02:20:06.131Z,72.67
2023-05-10T02:23:09.716Z,72.59
2023-05-10T02:26:12.996Z,71.92
2023-05-10T02:29:16.406Z,72.21
2023-05-10T02:32:19.921Z,71.77
2023-05-10T02:35:23.582Z,71.90
2023-05-10T02:38:26.923Z,71.56
2023-05-10T02:41:32.332Z,71.59
2023-05-10T02:44:35.924Z,71.55
2023-05-10T02:47:39.100Z,71.11
2023-05-10T02:50:47.395Z,70.00
2023-05-10T02:53:51.036Z,70.11
2023-05-10T02:56:57.651Z,70.15
2023-05-10T03:00:01.998Z,69.60
2023-05-10T03:03:04.644Z,69.14
2023-05-10T03:06:07.742Z,68.37
2023-05-10T03:09:12.103Z,68.72
2023-05-10T03:12:33.186Z,69.89
2023-05-10T03:15:49.531Z,70.98
2023-05-10T03:18:56.643Z,72.42
2023-05-10T03:22:05.421Z,72.87
2023-05-10T03:25:10.189Z,73.56
2023-05-10T03:28:13.758Z,73.89
2023-05-10T03:31:16.841Z,74.07
2023-05-10T03:34:24.933Z,74.20
2023-05-10T03:37:28.197Z,74.87
2023-05-10T03:40:32.814Z,75.17
2023-05-10T03:43:35.715Z,74.71
2023-05-10T03:46:38.232Z,74.65
2023-05-10T03:49:41.601Z,74.47
2023-05-10T03:52:44.616Z,74.47
2023-05-10T03:55:47.569Z,74.49
2023-05-10T03:58:50.044Z,74.37
2023-05-10T04:01:53.645Z,74.09
2023-05-10T04:04:56.565Z,73.99
2023-05-10T04:07:59.115Z,73.88
2023-05-10T04:11:09.961Z,74.07
2023-05-10T04:14:12.447Z,73.77
2023-05-10T04:17:15.390Z,73.89
2023-05-10T04:20:18.478Z,74.34
2023-05-10T04:23:21.487Z,74.27
2023-05-10T04:26:24.041Z,74.47
2023-05-10T04:29:27.670Z,74.47
2023-05-10T04:32:30.375Z,74.58
2023-05-10T04:35:33.330Z,74.80
2023-05-10T04:38:35.957Z,74.66
2023-05-10T04:41:39.217Z,75.01
2023-05-10T04:44:41.928Z,75.13
2023-05-10T04:47:44.756Z,74.93
2023-05-10T04:50:47.334Z,74.92
2023-05-10T04:54:01.652Z,74.90
2023-05-10T04:57:08.266Z,74.43
2023-05-10T05:00:11.734Z,74.49
2023-05-10T05:03:14.343Z,74.41
2023-05-10T05:06:17.177Z,74.51
2023-05-10T05:09:19.716Z,74.51
2023-05-10T05:12:22.536Z,74.32
2023-05-10T05:15:25.073Z,74.17
2023-05-10T05:18:28.006Z,74.11
2023-05-10T05:21:30.573Z,73.80
2023-05-10T05:24:37.521Z,74.25
2023-05-10T05:27:40.050Z,74.08
2023-05-10T05:30:42.887Z,73.77
2023-05-10T05:33:45.521Z,73.66
2023-05-10T05:36:48.817Z,73.01
2023-05-10T05:39:51.304Z,72.31
2023-05-10T05:42:54.230Z,72.42
2023-05-10T05:45:59.087Z,72.41
2023-05-10T05:49:02.339Z,71.67
2023-05-10T05:52:05.522Z,71.96
2023-05-10T05:55:08.480Z,72.13
2023-05-10T05:58:10.938Z,71.32
2023-05-10T06:01:13.760Z,71.31
2023-05-10T06:04:17.151Z,71.10
2023-05-10T06:07:19.756Z,70.07
2023-05-10T06:10:23.807Z,69.74
2023-05-10T06:13:29.896Z,69.74
2023-05-10T06:16:32.825Z,69.56
2023-05-10T06:19:35.335Z,68.29
2023-05-10T06:22:38.185Z,67.52
2023-05-10T06:25:41.217Z,67.50
2023-05-10T06:28:44.084Z,67.71
2023-05-10T06:31:46.701Z,66.64
2023-05-10T06:34:49.660Z,65.77
2023-05-10T06:37:52.476Z,65.21
2023-05-10T06:40:55.376Z,65.80
2023-05-10T06:43:57.859Z,65.47
2023-05-10T06:47:00.692Z,63.36
2023-05-10T06:50:03.307Z,63.29
2023-05-10T06:53:06.481Z,62.46
2023-05-10T06:56:28.853Z,62.31
2023-05-10T06:59:32.112Z,62.16
2023-05-10T07:02:34.783Z,61.85
2023-05-10T07:05:37.801Z,62.20
2023-05-10T07:08:40.602Z,60.81
2023-05-10T07:11:43.455Z,60.55
2023-05-10T07:14:46.372Z,60.13
2023-05-10T07:17:49.216Z,59.19
2023-05-10T07:20:52.341Z,58.79
2023-05-10T07:23:55.573Z,59.14
2023-05-10T07:26:58.109Z,59.50
2023-05-10T07:30:01.632Z,59.06
2023-05-10T07:33:04.240Z,59.58
2023-05-10T07:36:07.392Z,59.26
2023-05-10T07:39:11.431Z,58.60
2023-05-10T07:42:14.321Z,58.90
2023-05-10T07:45:17.188Z,58.09
2023-05-10T07:48:20.148Z,58.05
2023-05-10T07:51:22.806Z,58.36
2023-05-10T07:54:25.718Z,56.96
2023-05-10T07:57:28.243Z,57.74
2023-05-10T08:00:31.074Z,57.20
2023-05-10T08:03:34.060Z,56.38
2023-05-10T08:06:36.595Z,57.44
2023-05-10T08:09:39.429Z,56.48
2023-05-10T08:12:41.982Z,57.45
2023-05-10T08:15:44.803Z,58.23
2023-05-10T08:18:48.213Z,55.52
2023-05-10T08:21:51.186Z,56.11
2023-05-10T08:24:53.646Z,55.50
2023-05-10T08:27:56.486Z,55.57
2023-05-10T08:30:59.013Z,54.02
2023-05-10T08:34:01.851Z,53.93
2023-05-10T08:37:04.716Z,54.46
2023-05-10T08:40:08.084Z,53.87
2023-05-10T08:43:13.479Z,52.93
2023-05-10T08:46:20.720Z,54.21
2023-05-10T08:49:24.024Z,52.83
2023-05-10T08:52:27.665Z,52.25
2023-05-10T08:55:31.122Z,52.69
2023-05-10T08:58:34.025Z,51.67
2023-05-10T09:01:37.291Z,51.30
2023-05-10T09:04:40.173Z,51.14
2023-05-10T09:07:43.029Z,51.95
2023-05-10T09:10:48.265Z,52.69
2023-05-10T09:13:52.531Z,52.24
2023-05-10T09:16:56.305Z,52.11
2023-05-10T09:20:00.558Z,50.84
2023-05-10T09:23:03.362Z,51.37
2023-05-10T09:26:06.518Z,50.15
2023-05-10T09:29:09.494Z,50.08
2023-05-10T09:32:13.812Z,49.74
2023-05-10T09:35:22.662Z,50.41
2023-05-10T09:38:25.343Z,49.43
2023-05-10T09:41:29.102Z,50.41
2023-05-10T09:44:33.578Z,50.02
2023-05-10T09:47:37.122Z,50.11
2023-05-10T09:50:39.821Z,49.13
2023-05-10T09:53:42.625Z,49.70
2023-05-10T09:56:45.361Z,48.04
2023-05-10T09:59:48.395Z,47.27
2023-05-10T10:02:59.058Z,46.71
2023-05-10T10:06:01.976Z,47.03
2023-05-10T10:09:05.125Z,47.86
2023-05-10T10:12:07.888Z,47.46
2023-05-10T10:15:10.952Z,49.04
2023-05-10T10:18:15.724Z,46.36
2023-05-10T10:21:18.523Z,46.09
2023-05-10T10:24:21.290Z,47.39
2023-05-10T10:27:37.725Z,45.02
2023-05-10T10:30:44.684Z,45.87
2023-05-10T10:34:09.894Z,45.35
2023-05-10T10:37:12.668Z,46.59
2023-05-10T10:40:33.615Z,46.61
2023-05-10T10:43:37.652Z,43.96
2023-05-10T10:47:03.616Z,43.49
2023-05-10T10:50:09.178Z,44.16
2023-05-10T10:53:13.170Z,43.35
2023-05-10T10:56:16.713Z,42.82
2023-05-10T10:59:28.860Z,41.72
2023-05-10T11:02:46.887Z,42.35
2023-05-10T11:05:50.657Z,43.47
2023-05-10T11:08:53.740Z,42.75
2023-05-10T11:11:56.618Z,42.35
2023-05-10T11:14:59.876Z,42.39
2023-05-10T11:18:21.695Z,42.26
2023-05-10T11:21:24.656Z,42.92
2023-05-10T11:24:28.919Z,43.42
2023-05-10T11:27:34.102Z,42.79
2023-05-10T11:30:39.217Z,43.36
2023-05-10T11:33:50.980Z,43.53
2023-05-10T11:36:54.918Z,44.79
2023-05-10T11:39:57.650Z,43.61
2023-05-10T11:43:00.462Z,41.30
2023-05-10T11:46:03.918Z,41.30
2023-05-10T11:49:08.334Z,40.44
2023-05-10T11:52:12.424Z,40.09
2023-05-10T11:55:14.920Z,40.06
2023-05-10T11:58:19.307Z,40.89
2023-05-10T12:01:22.012Z,40.31
2023-05-10T12:04:25.135Z,40.16
2023-05-10T12:07:27.660Z,39.99
2023-05-10T12:10:30.500Z,41.45
2023-05-10T12:13:32.941Z,40.22
2023-05-10T12:16:36.979Z,40.49
2023-05-10T12:19:39.746Z,40.23
2023-05-10T12:22:48.660Z,41.63
2023-05-10T12:25:52.419Z,41.63
2023-05-10T12:28:56.055Z,42.08
2023-05-10T12:32:00.499Z,41.53
2023-05-10T12:35:04.924Z,41.57
2023-05-10T12:38:26.091Z,41.88
2023-05-10T12:41:28.936Z,42.02
2023-05-10T12:44:31.437Z,42.27
2023-05-10T12:47:34.405Z,42.84
2023-05-10T12:50:36.907Z,41.77
2023-05-10T12:53:41.675Z,42.04
2023-05-10T12:56:46.813Z,42.33
2023-05-10T12:59:49.776Z,43.18
2023-05-10T13:02:52.380Z,42.41
2023-05-10T13:05:55.144Z,41.75
2023-05-10T13:08:58.626Z,40.81
2023-05-10T13:12:01.501Z,40.26
2023-05-10T13:15:04.558Z,40.63
2023-05-10T13:18:07.351Z,40.71
2023-05-10T13:21:09.929Z,40.91
2023-05-10T13:24:14.769Z,39.89
2023-05-10T13:27:17.229Z,40.00
2023-05-10T13:30:20.031Z,39.47
2023-05-10T13:33:22.504Z,38.73
2023-05-10T13:36:25.609Z,37.77
2023-05-10T13:39:28.193Z,37.41
2023-05-10T13:42:32.686Z,36.63
2023-05-10T13:45:35.236Z,38.21
2023-05-10T13:48:39.186Z,39.08
2023-05-10T13:51:41.803Z,38.71
2023-05-10T13:54:44.603Z,38.16
2023-05-10T13:57:47.324Z,38.82
2023-05-10T14:00:50.116Z,38.83
2023-05-10T14:03:53.033Z,38.93
2023-05-10T14:06:58.008Z,38.54
2023-05-10T14:10:01.332Z,38.29
2023-05-10T14:13:04.267Z,38.82
2023-05-10T14:16:07.422Z,39.43
2023-05-10T14:19:10.353Z,39.57
2023-05-10T14:22:13.163Z,40.56
2023-05-10T14:25:15.908Z,41.41
2023-05-10T14:28:19.566Z,40.03
2023-05-10T14:31:22.158Z,39.00
2023-05-10T14:34:25.014Z,38.63
2023-05-10T14:37:27.819Z,38.34
2023-05-10T14:40:31.205Z,37.91
2023-05-10T14:43:33.877Z,38.29
2023-05-10T14:46:42.907Z,38.13
2023-05-10T14:49:45.471Z,37.33
2023-05-10T14:52:48.591Z,37.22
2023-05-10T14:55:51.136Z,36.17
2023-05-10T14:58:54.036Z,36.43
2023-05-10T15:01:57.082Z,35.38
2023-05-10T15:05:00.335Z,34.86
2023-05-10T15:08:03.747Z,34.79
2023-05-10T15:11:06.628Z,35.04
2023-05-10T15:14:09.114Z,35.50
2023-05-10T15:17:12.607Z,34.76
2023-05-10T15:20:15.161Z,35.27
2023-05-10T15:23:18.060Z,35.86
2023-05-10T15:26:20.550Z,36.64
2023-05-10T15:29:23.579Z,36.70
2023-05-10T15:32:26.276Z,36.76
2023-05-10T15:35:29.184Z,37.58
2023-05-10T15:38:32.494Z,38.68
2023-05-10T15:41:35.338Z,38.02
2023-05-10T15:44:39.459Z,38.62
2023-05-10T15:47:42.297Z,38.35
2023-05-10T15:50:44.944Z,37.92
2023-05-10T15:54:05.330Z,37.56
2023-05-10T15:57:08.707Z,36.92
2023-05-10T16:00:12.778Z,37.31
2023-05-10T16:03:15.215Z,36.46
2023-05-10T16:06:18.173Z,36.72
2023-05-10T16:09:21.709Z,36.90
2023-05-10T16:12:24.732Z,37.64
2023-05-10T16:15:27.534Z,37.61
2023-05-10T16:18:30.575Z,38.69
2023-05-10T16:21:33.502Z,38.96
2023-05-10T16:24:36.727Z,39.14
2023-05-10T16:27:39.466Z,40.30
2023-05-10T16:30:42.415Z,40.42
2023-05-10T16:33:45.103Z,40.11
2023-05-10T16:36:47.921Z,40.78
2023-05-10T16:39:50.548Z,40.82
2023-05-10T16:42:53.403Z,41.37
2023-05-10T16:45:56.125Z,41.74
2023-05-10T16:49:00.281Z,42.96
2023-05-10T16:52:03.283Z,43.57
2023-05-10T16:55:06.631Z,43.28
2023-05-10T16:58:09.121Z,43.02
2023-05-10T17:01:12.168Z,43.06
2023-05-10T17:04:15.302Z,43.20
2023-05-10T17:07:19.068Z,43.63
2023-05-10T17:10:21.854Z,44.18
2023-05-10T17:13:24.727Z,44.31
2023-05-10T17:16:27.440Z,44.58
2023-05-10T17:19:30.756Z,44.83
2023-05-10T17:22:33.298Z,44.48
2023-05-10T17:25:36.858Z,44.69
2023-05-10T17:28:39.312Z,44.83
2023-05-10T17:31:42.478Z,45.10
2023-05-10T17:34:45.074Z,44.85
2023-05-10T17:37:48.028Z,45.09
2023-05-10T17:40:51.620Z,45.13
2023-05-10T17:43:54.801Z,45.63
2023-05-10T17:46:57.688Z,45.85
2023-05-10T17:50:00.777Z,46.23
2023-05-10T17:53:03.833Z,45.59
2023-05-10T17:56:07.068Z,46.04
2023-05-10T17:59:09.623Z,45.21
2023-05-10T18:02:13.501Z,45.80
2023-05-10T18:05:19.210Z,45.69
2023-05-10T18:08:27.268Z,46.03
2023-05-10T18:11:30.434Z,46.13
2023-05-10T18:14:40.485Z,45.88
2023-05-10T18:17:44.346Z,46.00
2023-05-10T18:20:47.379Z,45.97
2023-05-10T18:23:50.664Z,46.28
2023-05-10T18:26:53.798Z,46.29
2023-05-10T18:29:57.086Z,46.46
2023-05-10T18:32:59.995Z,46.56
2023-05-10T18:36:04.389Z,46.72
2023-05-10T18:39:07.113Z,46.54
2023-05-10T18:42:10.665Z,46.67
2023-05-10T18:45:13.769Z,47.02
2023-05-10T18:48:17.253Z,47.27
2023-05-10T18:51:22.945Z,47.43
2023-05-10T18:54:26.855Z,47.96
2023-05-10T18:57:30.411Z,48.48
2023-05-10T19:00:34.823Z,48.65
2023-05-10T19:03:37.684Z,49.15
2023-05-10T19:06:42.037Z,49.73
2023-05-10T19:09:44.959Z,49.93
2023-05-10T19:12:48.114Z,50.10
2023-05-10T19:16:10.096Z,50.45
2023-05-10T19:19:14.414Z,50.73
2023-05-10T19:22:19.797Z,50.85
2023-05-10T19:25:29.672Z,51.05
2023-05-10T19:28:32.332Z,51.43
2023-05-10T19:31:35.400Z,51.45
2023-05-10T19:34:38.046Z,51.07
2023-05-10T19:37:46.066Z,51.07
2023-05-10T19:40:59.288Z,51.94
2023-05-10T19:44:05.481Z,51.57
2023-05-10T19:47:09.308Z,51.71
2023-05-10T19:50:12.691Z,51.25
2023-05-10T19:53:15.675Z,51.08
2023-05-10T19:56:18.852Z,51.19
2023-05-10T19:59:21.522Z,51.02
2023-05-10T20:02:24.626Z,51.00
2023-05-10T20:05:27.511Z,51.57
2023-05-10T20:08:31.072Z,51.37
2023-05-10T20:11:34.141Z,51.46
2023-05-10T20:14:36.884Z,51.44
2023-05-10T20:17:39.874Z,51.13
2023-05-10T20:20:43.197Z,51.41
2023-05-10T20:23:46.015Z,51.72
2023-05-10T20:26:48.528Z,51.45
2023-05-10T20:29:51.697Z,51.59
2023-05-10T20:32:54.684Z,51.43
2023-05-10T20:35:57.530Z,51.78
2023-05-10T20:38:59.960Z,51.46
2023-05-10T20:42:03.798Z,51.47
2023-05-10T20:45:07.213Z,51.26
2023-05-10T20:48:10.062Z,51.42
2023-05-10T20:51:12.514Z,51.36
2023-05-10T20:54:15.318Z,51.25
2023-05-10T20:57:17.847Z,51.15
2023-05-10T21:00:21.019Z,50.94
2023-05-10T21:03:23.574Z,51.28
2023-05-10T21:06:26.545Z,51.20
2023-05-10T21:09:29.091Z,51.31
2023-05-10T21:12:31.998Z,50.96
2023-05-10T21:15:34.470Z,51.14
2023-05-10T21:18:37.297Z,50.78
2023-05-10T21:21:39.853Z,51.06
2023-05-10T21:24:42.721Z,50.95
2023-05-10T21:27:45.915Z,51.25
2023-05-10T21:30:48.712Z,51.10
2023-05-10T21:33:51.503Z,51.51
2023-05-10T21:36:54.954Z,51.29
2023-05-10T21:39:57.430Z,51.46
2023-05-10T21:43:00.225Z,51.34
2023-05-10T21:46:02.976Z,51.60
2023-05-10T21:49:05.838Z,51.25
2023-05-10T21:52:08.344Z,51.62
2023-05-10T21:55:11.211Z,51.39
2023-05-10T21:58:13.676Z,51.80
2023-05-10T22:01:17.999Z,51.64
2023-05-10T22:04:20.763Z,51.45
2023-05-10T22:07:23.267Z,51.29
2023-05-10T22:10:26.032Z,51.38
2023-05-10T22:13:28.719Z,51.04
2023-05-10T22:16:31.652Z,50.89
2023-05-10T22:19:34.134Z,51.61
2023-05-10T22:22:36.982Z,51.21
2023-05-10T22:25:39.477Z,51.48
2023-05-10T22:28:42.303Z,51.39
2023-05-10T22:31:44.857Z,51.42
2023-05-10T22:34:47.609Z,51.57
2023-05-10T22:37:50.176Z,52.07
2023-05-10T22:40:53.039Z,51.74
2023-05-10T22:43:55.605Z,51.91
2023-05-10T22:46:58.460Z,52.10
2023-05-10T22:50:03.476Z,52.05
2023-05-10T22:53:07.277Z,52.17
2023-05-10T22:56:09.821Z,52.17
2023-05-10T22:59:12.702Z,52.13
2023-05-10T23:02:15.411Z,51.96
2023-05-10T23:05:18.510Z,51.76
2023-05-10T23:08:21.258Z,52.09
2023-05-10T23:11:24.182Z,52.36
2023-05-10T23:14:26.772Z,52.38
2023-05-10T23:17:30.041Z,52.56
2023-05-10T23:20:33.087Z,52.61
2023-05-10T23:23:36.113Z,52.68
2023-05-10T23:26:38.736Z,52.59
2023-05-10T23:29:41.948Z,52.64
2023-05-10T23:32:44.551Z,53.05
2023-05-10T23:35:47.426Z,53.36
2023-05-10T23:38:49.983Z,53.19
2023-05-10T23:41:52.852Z,53.54
2023-05-10T23:44:55.339Z,53.34
2023-05-10T23:47:58.257Z,53.14
2023-05-10T23:51:00.985Z,53.51
2023-05-10T23:54:03.758Z,53.39
2023-05-10T23:57:06.303Z,53.50
